Wise, VA

9:35 PM EST on December 06, 2019 (GMT -0500)
Lonesome Pine

Weather History for KLNP - October, 2019

Change the Weather History Date:

Monday, October 28, 2019

  Actual Average Record
Temperature  
Mean Temperature 60 °F -  
Max Temperature 73 °F 60 °F 73 °F (1999)
Min Temperature 46 °F 41 °F 26 °F (1997)
Degree Days  
Heating Degree Days 6    
Growing Degree Days 10 (Base 50)    
Moisture  
Dew Point 48 °F    
Average Humidity 71    
Maximum Humidity 100    
Minimum Humidity 33    
Precipitation  
Precipitation 0.00 in - - ()
Sea Level Pressure  
Sea Level Pressure 30.13 in    
Wind  
Wind Speed 2 mph ()    
Max Wind Speed 9 mph    
Max Gust Speed -    
Visibility 9.6 miles    
Events      
Averages and records for this station are not official NWS values.
T = Trace of Precipitation, MM = Missing Value Source: Averaged Metar Reports

Daily Weather History Graph

Daily Weather History Graph

Search for Another Location

Airport or City:

Astronomy

Oct. 28, 2019 Rise Set
Actual Time 7:49 AM EDT 6:37 PM EDT
Civil Twilight 7:23 AM EDT 7:03 PM EDT
Nautical Twilight 6:52 AM EDT 7:34 PM EDT
Astronomical Twilight 6:22 AM EDT 8:04 PM EDT
Moon 8:10 AM EDT (10/28) 7:22 PM EDT (10/28)
Length of Visible Light 11h 40m
Length of Day
10h 47m
New Moon, 0% of the Moon is Illuminated
Oct 28
New Moon
Nov 4
First Quarter
Nov 12
Full
Nov 19
Last Quarter
Nov 26
New

Hourly Weather History & Observations

Time (EDT) Temp. Dew Point Humidity Pressure Visibility Wind Dir Wind Speed Gust Speed Precip Events Conditions
12:15 AM 50.0 °F 50.0 °F 100% 30.12 in 10.0 mi Calm Calm - N/A   Clear
12:35 AM 50.0 °F 50.0 °F 100% 30.12 in 10.0 mi Calm Calm - N/A   Clear
1:15 AM 53.6 °F 50.0 °F 88% 30.11 in 10.0 mi Calm Calm - N/A   Clear
1:35 AM 53.6 °F 48.2 °F 82% 30.11 in 10.0 mi Calm Calm - N/A   Clear
1:55 AM 53.6 °F 48.2 °F 82% 30.11 in 10.0 mi Calm Calm - N/A   Clear
2:35 AM 51.8 °F 48.2 °F 88% 30.12 in 10.0 mi Calm Calm - N/A   Clear
2:55 AM 51.8 °F 50.0 °F 94% 30.12 in 10.0 mi NNE 4.6 mph - N/A   Clear
3:15 AM 51.8 °F 48.2 °F 88% 30.12 in 10.0 mi North 3.5 mph - N/A   Clear
3:35 AM 48.2 °F 48.2 °F 100% 30.12 in 10.0 mi Calm Calm - N/A   Clear
3:55 AM 50.0 °F 50.0 °F 100% 30.12 in 10.0 mi Calm Calm - N/A   Clear
4:15 AM 50.0 °F 50.0 °F 100% 30.12 in 10.0 mi Calm Calm - N/A   Clear
4:35 AM 50.0 °F 50.0 °F 100% 30.12 in 10.0 mi Calm Calm - N/A   Clear
4:55 AM 50.0 °F 50.0 °F 100% 30.12 in 10.0 mi NNE 3.5 mph - N/A   Clear
5:15 AM 48.2 °F 46.4 °F 93% 30.12 in 10.0 mi Calm Calm - N/A   Clear
5:35 AM 50.0 °F 50.0 °F 100% 30.12 in 10.0 mi Calm Calm - N/A   Clear
5:55 AM 50.0 °F 50.0 °F 100% 30.12 in 10.0 mi Calm Calm - N/A   Clear
6:15 AM 48.2 °F 48.2 °F 100% 30.13 in 4.0 mi Calm Calm - N/A   Clear
6:35 AM 46.4 °F 46.4 °F 100% 30.14 in 0.8 mi Calm Calm - N/A   Mist
6:55 AM 48.2 °F 48.2 °F 100% 30.14 in 1.2 mi Calm Calm - N/A   Mist
7:15 AM 50.0 °F 50.0 °F 100% 30.14 in 10.0 mi Calm Calm - N/A   Clear
7:35 AM 50.0 °F 50.0 °F 100% 30.14 in 10.0 mi Calm Calm - N/A   Clear
7:55 AM 50.0 °F 50.0 °F 100% 30.15 in 10.0 mi Calm Calm - N/A   Clear
8:15 AM 51.8 °F 51.8 °F 100% 30.15 in 10.0 mi Calm Calm - N/A   Clear
8:55 AM 51.8 °F 51.8 °F 100% 30.16 in 10.0 mi Calm Calm - N/A   Clear
9:15 AM 55.4 °F 51.8 °F 88% 30.16 in 10.0 mi Calm Calm - N/A   Clear
9:35 AM 57.2 °F 50.0 °F 77% 30.16 in 10.0 mi East 3.5 mph - N/A   Clear
9:55 AM 59.0 °F 50.0 °F 72% 30.16 in 10.0 mi East 3.5 mph - N/A   Clear
10:15 AM 59.0 °F 50.0 °F 72% 30.16 in 10.0 mi East 3.5 mph - N/A   Clear
10:35 AM 60.8 °F 50.0 °F 68% 30.17 in 10.0 mi East 4.6 mph - N/A   Clear
10:55 AM 60.8 °F 50.0 °F 68% 30.16 in 10.0 mi East 3.5 mph - N/A   Clear
11:15 AM 62.6 °F 50.0 °F 63% 30.16 in 10.0 mi SE 3.5 mph - N/A   Clear
11:35 AM 64.4 °F 48.2 °F 56% 30.17 in 10.0 mi SE 5.8 mph - N/A   Clear
12:15 PM 68.0 °F 48.2 °F 49% 30.16 in 10.0 mi ESE 4.6 mph - N/A   Clear
1:35 PM 71.6 °F 48.2 °F 43% 30.14 in 10.0 mi ESE 4.6 mph - N/A   Clear
1:55 PM 71.6 °F 46.4 °F 41% 30.12 in 10.0 mi South 3.5 mph - N/A   Clear
2:15 PM 71.6 °F 48.2 °F 43% 30.11 in 10.0 mi East 5.8 mph - N/A   Clear
2:35 PM 73.4 °F 48.2 °F 41% 30.10 in 10.0 mi SE 5.8 mph - N/A   Clear
2:55 PM 71.6 °F 46.4 °F 41% 30.10 in 10.0 mi ENE 3.5 mph - N/A   Clear
3:15 PM 73.4 °F 46.4 °F 38% 30.10 in 10.0 mi East 8.1 mph - N/A   Clear
3:35 PM 73.4 °F 42.8 °F 33% 30.10 in 10.0 mi SE 4.6 mph - N/A   Clear
3:55 PM 73.4 °F 44.6 °F 36% 30.10 in 10.0 mi South 6.9 mph - N/A   Clear
4:15 PM 73.4 °F 44.6 °F 36% 30.10 in 10.0 mi South 4.6 mph - N/A   Clear
4:35 PM 73.4 °F 46.4 °F 38% 30.10 in 10.0 mi South 4.6 mph - N/A   Clear
4:55 PM 71.6 °F 44.6 °F 38% 30.11 in 10.0 mi SSE 6.9 mph - N/A   Clear
5:15 PM 71.6 °F 44.6 °F 38% 30.11 in 10.0 mi SSW 5.8 mph - N/A   Clear
5:35 PM 71.6 °F 44.6 °F 38% 30.11 in 10.0 mi South 5.8 mph - N/A   Clear
5:55 PM 71.6 °F 44.6 °F 38% 30.11 in 10.0 mi South 4.6 mph - N/A   Clear
6:35 PM 68.0 °F 46.4 °F 46% 30.12 in 10.0 mi Calm Calm - N/A   Clear
6:55 PM 64.4 °F 46.4 °F 52% 30.12 in 10.0 mi Calm Calm - N/A   Clear
7:15 PM 62.6 °F 46.4 °F 55% 30.12 in 10.0 mi SSW 3.5 mph - N/A   Clear
7:35 PM 59.0 °F 46.4 °F 63% 30.12 in 10.0 mi SW 3.5 mph - N/A   Clear
7:55 PM 59.0 °F 46.4 °F 63% 30.13 in 10.0 mi SSW 3.5 mph - N/A   Clear
8:15 PM 60.8 °F 46.4 °F 59% 30.13 in 10.0 mi SSW 4.6 mph - N/A   Clear
8:35 PM 60.8 °F 46.4 °F 59% 30.13 in 10.0 mi South 4.6 mph - N/A   Clear
8:55 PM 64.4 °F 48.2 °F 56% 30.14 in 10.0 mi SSE 4.6 mph - N/A   Clear
9:15 PM 62.6 °F 48.2 °F 59% 30.14 in 10.0 mi SSE 4.6 mph - N/A   Clear
9:35 PM 60.8 °F 48.2 °F 63% 30.15 in 10.0 mi SSW 3.5 mph - N/A   Clear
9:55 PM 62.6 °F 48.2 °F 59% 30.16 in 10.0 mi South 5.8 mph - N/A   Clear
10:35 PM 60.8 °F 50.0 °F 68% 30.16 in 10.0 mi South 9.2 mph - N/A   Clear
11:15 PM 60.8 °F 50.0 °F 68% 30.17 in 10.0 mi South 4.6 mph - N/A   Clear
11:35 PM 59.0 °F 50.0 °F 72% 30.17 in 10.0 mi SSW 3.5 mph - N/A   Clear
11:55 PM 59.0 °F 50.0 °F 72% 30.17 in 10.0 mi South 4.6 mph - N/A   Clear